createdAt,value
2022-09-06T00:01:17.889Z,9.71
2022-09-06T00:03:46.986Z,9.70
2022-09-06T00:06:19.138Z,9.69
2022-09-06T00:08:49.224Z,9.68
2022-09-06T00:11:18.989Z,9.69
2022-09-06T00:13:48.261Z,9.67
2022-09-06T00:16:21.442Z,9.64
2022-09-06T00:18:55.089Z,9.64
2022-09-06T00:21:28.514Z,9.59
2022-09-06T00:23:57.318Z,9.51
2022-09-06T00:26:26.217Z,9.44
2022-09-06T00:28:54.854Z,9.38
2022-09-06T00:31:26.561Z,9.32
2022-09-06T00:33:55.428Z,9.26
2022-09-06T00:36:24.667Z,9.22
2022-09-06T00:38:53.354Z,9.17
2022-09-06T00:41:22.153Z,9.14
2022-09-06T00:43:51.318Z,9.12
2022-09-06T00:46:29.864Z,9.12
2022-09-06T00:49:09.705Z,9.13
2022-09-06T00:51:39.094Z,9.12
2022-09-06T00:54:10.358Z,9.11
2022-09-06T00:56:43.707Z,9.04
2022-09-06T00:59:12.398Z,9.05
2022-09-06T01:01:41.278Z,9.04
2022-09-06T01:04:10.476Z,9.02
2022-09-06T01:07:02.991Z,8.97
2022-09-06T01:09:52.626Z,8.94
2022-09-06T01:13:01.160Z,8.93
2022-09-06T01:15:46.071Z,8.91
2022-09-06T01:18:54.091Z,8.86
2022-09-06T01:21:47.345Z,8.84
2022-09-06T01:24:16.453Z,8.83
2022-09-06T01:27:10.117Z,8.82
2022-09-06T01:29:55.849Z,8.82
2022-09-06T01:32:33.071Z,8.79
2022-09-06T01:35:07.985Z,8.76
2022-09-06T01:37:37.358Z,8.73
2022-09-06T01:40:07.357Z,8.71
2022-09-06T01:42:38.739Z,8.70
2022-09-06T01:45:16.513Z,8.67
2022-09-06T01:48:12.052Z,8.68
2022-09-06T01:51:04.984Z,8.68
2022-09-06T01:54:00.216Z,8.68
2022-09-06T01:56:48.028Z,8.66
2022-09-06T02:00:26.999Z,8.64
2022-09-06T02:03:58.738Z,8.64
2022-09-06T02:06:33.276Z,8.63
2022-09-06T02:09:16.374Z,8.64
2022-09-06T02:11:52.062Z,8.63
2022-09-06T02:14:46.747Z,8.60
2022-09-06T02:17:24.138Z,8.53
2022-09-06T02:20:06.537Z,8.46
2022-09-06T02:22:44.314Z,8.40
2022-09-06T02:25:22.933Z,8.28
2022-09-06T02:27:51.791Z,8.20
2022-09-06T02:30:20.708Z,8.11
2022-09-06T02:32:58.422Z,8.05
2022-09-06T02:35:27.230Z,8.03
2022-09-06T02:37:57.126Z,7.96
2022-09-06T02:40:26.346Z,7.91
2022-09-06T02:42:55.107Z,7.87
2022-09-06T02:45:23.885Z,7.85
2022-09-06T02:47:52.659Z,7.85
2022-09-06T02:50:21.274Z,7.85
2022-09-06T02:53:22.595Z,7.80
2022-09-06T02:55:51.287Z,7.76
2022-09-06T02:58:20.346Z,7.77
2022-09-06T03:00:51.917Z,7.84
2022-09-06T03:03:22.317Z,7.89
2022-09-06T03:05:53.330Z,8.03
2022-09-06T03:08:26.586Z,8.09
2022-09-06T03:10:57.257Z,8.15
2022-09-06T03:13:27.292Z,8.19
2022-09-06T03:15:59.614Z,8.23
2022-09-06T03:18:30.761Z,8.28
2022-09-06T03:21:00.236Z,8.32
2022-09-06T03:23:30.143Z,8.37
2022-09-06T03:25:58.908Z,8.42
2022-09-06T03:28:28.161Z,8.46
2022-09-06T03:30:57.652Z,8.48
2022-09-06T03:33:26.961Z,8.55
2022-09-06T03:36:00.009Z,8.59
2022-09-06T03:38:30.024Z,8.58
2022-09-06T03:40:58.956Z,8.52
2022-09-06T03:43:28.552Z,8.55
2022-09-06T03:45:58.079Z,8.61
2022-09-06T03:48:30.313Z,8.71
2022-09-06T03:50:59.580Z,8.80
2022-09-06T03:53:29.891Z,8.83
2022-09-06T03:55:59.312Z,8.87
2022-09-06T03:58:33.458Z,8.94
2022-09-06T04:01:08.768Z,9.02
2022-09-06T04:03:39.040Z,9.09
2022-09-06T04:06:08.761Z,9.18
2022-09-06T04:08:38.846Z,9.33
2022-09-06T04:11:08.009Z,9.42
2022-09-06T04:13:37.323Z,9.50
2022-09-06T04:16:06.955Z,9.59
2022-09-06T04:18:35.856Z,9.66
2022-09-06T04:21:04.801Z,9.63
2022-09-06T04:23:36.515Z,9.68
2022-09-06T04:26:08.630Z,9.73
2022-09-06T04:28:37.300Z,9.67
2022-09-06T04:31:06.167Z,9.63
2022-09-06T04:33:37.483Z,9.63
2022-09-06T04:36:11.725Z,9.66
2022-09-06T04:38:45.018Z,9.79
2022-09-06T04:41:16.585Z,9.87
2022-09-06T04:43:45.604Z,9.94
2022-09-06T04:46:25.090Z,10.05
2022-09-06T04:48:55.532Z,10.18
2022-09-06T04:51:25.603Z,10.18
2022-09-06T04:53:54.474Z,10.32
2022-09-06T04:56:26.589Z,10.39
2022-09-06T04:58:56.084Z,10.43
2022-09-06T05:01:26.750Z,10.45
2022-09-06T05:03:57.050Z,10.36
2022-09-06T05:06:27.085Z,10.31
2022-09-06T05:08:55.726Z,10.25
2022-09-06T05:11:24.832Z,10.28
2022-09-06T05:13:53.570Z,10.47
2022-09-06T05:16:22.260Z,10.64
2022-09-06T05:18:51.070Z,10.81
2022-09-06T05:21:19.936Z,10.96
2022-09-06T05:23:48.611Z,10.94
2022-09-06T05:26:17.313Z,10.83
2022-09-06T05:28:45.941Z,10.73
2022-09-06T05:31:28.547Z,10.70
2022-09-06T05:33:58.800Z,10.83
2022-09-06T05:36:29.242Z,10.94
2022-09-06T05:38:58.948Z,11.09
2022-09-06T05:41:28.129Z,11.16
2022-09-06T05:43:56.855Z,11.26
2022-09-06T05:46:26.947Z,11.41
2022-09-06T05:49:08.336Z,11.52
2022-09-06T05:51:37.062Z,11.59
2022-09-06T05:54:06.635Z,11.76
2022-09-06T05:56:35.362Z,11.87
2022-09-06T05:59:04.843Z,11.89
2022-09-06T06:01:33.866Z,11.98
2022-09-06T06:04:05.766Z,12.02
2022-09-06T06:06:35.318Z,12.03
2022-09-06T06:09:04.455Z,12.01
2022-09-06T06:11:33.454Z,12.07
2022-09-06T06:14:04.125Z,12.31
2022-09-06T06:16:33.356Z,12.41
2022-09-06T06:19:02.490Z,12.55
2022-09-06T06:21:34.459Z,12.58
2022-09-06T06:24:05.744Z,12.59
2022-09-06T06:26:36.685Z,12.69
2022-09-06T06:29:09.790Z,12.79
2022-09-06T06:31:39.805Z,12.87
2022-09-06T06:34:09.382Z,12.98
2022-09-06T06:36:38.547Z,13.13
2022-09-06T06:39:09.002Z,13.30
2022-09-06T06:41:38.167Z,13.41
2022-09-06T06:44:15.869Z,13.44
2022-09-06T06:46:44.759Z,13.50
2022-09-06T06:49:14.091Z,13.61
2022-09-06T06:51:42.948Z,13.65
2022-09-06T06:54:11.852Z,13.77
2022-09-06T06:56:41.473Z,13.93
2022-09-06T06:59:10.545Z,14.01
2022-09-06T07:01:40.000Z,14.16
2022-09-06T07:04:10.888Z,14.34
2022-09-06T07:12:33.283Z,15.05
2022-09-06T07:15:02.061Z,15.27
2022-09-06T07:17:30.951Z,15.44
2022-09-06T07:20:15.878Z,15.59
2022-09-06T07:22:45.221Z,15.98
2022-09-06T07:25:20.564Z,16.16
2022-09-06T07:28:07.349Z,16.47
2022-09-06T07:30:37.693Z,16.57
2022-09-06T07:33:07.382Z,16.47
2022-09-06T07:35:36.613Z,16.57
2022-09-06T07:38:05.447Z,16.72
2022-09-06T07:40:34.296Z,16.81
2022-09-06T07:43:03.344Z,16.88
2022-09-06T07:45:32.207Z,17.12
2022-09-06T07:48:01.209Z,17.14
2022-09-06T07:50:47.828Z,17.22
2022-09-06T07:53:24.625Z,17.47
2022-09-06T07:56:01.838Z,17.69
2022-09-06T07:58:31.632Z,17.70
2022-09-06T08:01:26.903Z,17.78
2022-09-06T08:03:56.375Z,18.15
2022-09-06T08:06:27.684Z,18.15
2022-09-06T08:11:33.615Z,18.23
2022-09-06T08:14:06.089Z,18.37
2022-09-06T08:16:37.591Z,18.68
2022-09-06T08:19:12.667Z,18.89
2022-09-06T08:21:42.107Z,19.08
2022-09-06T08:24:11.572Z,19.19
2022-09-06T08:26:42.718Z,19.38
2022-09-06T08:29:13.016Z,19.40
2022-09-06T08:31:44.827Z,19.28
2022-09-06T08:34:14.836Z,19.01
2022-09-06T08:36:44.659Z,19.09
2022-09-06T08:39:13.621Z,19.28
2022-09-06T08:42:01.459Z,19.47
2022-09-06T08:44:58.599Z,19.63
2022-09-06T08:47:27.920Z,19.72
2022-09-06T08:50:03.090Z,19.72
2022-09-06T08:53:17.598Z,19.87
2022-09-06T08:56:04.993Z,19.95
2022-09-06T08:59:04.167Z,20.19
2022-09-06T09:02:10.649Z,20.29
2022-09-06T09:04:48.597Z,20.53
2022-09-06T09:07:39.988Z,20.57
2022-09-06T09:10:29.718Z,20.55
2022-09-06T09:13:04.062Z,20.40
2022-09-06T09:15:39.667Z,20.46
2022-09-06T09:18:09.396Z,20.70
2022-09-06T09:20:39.796Z,20.85
2022-09-06T09:23:09.365Z,21.01
2022-09-06T09:25:40.064Z,21.16
2022-09-06T09:28:20.620Z,21.50
2022-09-06T09:30:53.487Z,21.65
2022-09-06T09:33:31.393Z,21.57
2022-09-06T09:36:11.686Z,21.40
2022-09-06T09:38:52.241Z,20.89
2022-09-06T09:41:36.313Z,21.01
2022-09-06T09:44:19.333Z,21.09
2022-09-06T09:46:48.234Z,21.02
2022-09-06T09:49:22.725Z,21.12
2022-09-06T09:52:12.202Z,21.30
2022-09-06T09:54:44.755Z,21.29
2022-09-06T09:57:20.430Z,21.42
2022-09-06T10:00:01.602Z,21.20
2022-09-06T10:02:42.928Z,21.44
2022-09-06T10:05:16.433Z,21.65
2022-09-06T10:07:55.219Z,21.78
2022-09-06T10:10:26.360Z,22.07
2022-09-06T10:13:24.802Z,22.00
2022-09-06T10:15:54.500Z,21.79
2022-09-06T10:18:39.323Z,21.89
2022-09-06T10:21:24.431Z,21.85
2022-09-06T10:24:28.898Z,22.06
2022-09-06T10:27:02.785Z,22.15
2022-09-06T10:29:58.958Z,22.31
2022-09-06T10:32:52.331Z,22.75
2022-09-06T10:35:39.117Z,23.15
2022-09-06T10:38:36.100Z,23.33
2022-09-06T10:41:22.926Z,23.56
2022-09-06T10:44:12.543Z,23.39
2022-09-06T10:46:45.827Z,23.01
2022-09-06T10:49:20.396Z,23.21
2022-09-06T10:52:03.867Z,23.67
2022-09-06T10:54:35.892Z,23.80
2022-09-06T11:00:13.990Z,24.16
2022-09-06T11:06:03.003Z,24.42
2022-09-06T11:08:58.271Z,23.94
2022-09-06T11:12:31.608Z,24.37
2022-09-06T11:15:06.470Z,24.38
2022-09-06T11:17:46.110Z,24.55
2022-09-06T11:20:33.001Z,24.33
2022-09-06T11:23:49.156Z,24.54
2022-09-06T11:26:34.790Z,24.93
2022-09-06T11:29:28.584Z,25.01
2022-09-06T11:32:25.103Z,25.54
2022-09-06T11:35:10.394Z,25.41
2022-09-06T11:37:45.377Z,25.45
2022-09-06T11:42:59.689Z,25.10
2022-09-06T11:45:51.884Z,25.40
2022-09-06T11:48:26.966Z,25.61
2022-09-06T11:51:01.234Z,25.48
2022-09-06T11:53:34.798Z,25.32
2022-09-06T11:56:03.622Z,23.95
2022-09-06T11:58:40.168Z,23.44
2022-09-06T12:01:19.168Z,23.26
2022-09-06T12:04:09.894Z,23.20
2022-09-06T12:07:02.725Z,22.76
2022-09-06T12:10:01.621Z,22.43
2022-09-06T12:13:47.414Z,22.96
2022-09-06T12:16:18.068Z,24.01
2022-09-06T12:18:49.854Z,24.41
2022-09-06T12:21:42.256Z,25.11
2022-09-06T12:24:46.265Z,25.72
2022-09-06T12:27:23.658Z,26.10
2022-09-06T12:30:07.649Z,26.41
2022-09-06T12:32:46.328Z,26.39
2022-09-06T12:38:17.503Z,26.57
2022-09-06T12:40:59.393Z,26.86
2022-09-06T12:43:28.800Z,27.34
2022-09-06T12:46:00.042Z,27.05
2022-09-06T12:48:32.186Z,26.60
2022-09-06T12:51:07.303Z,26.93
2022-09-06T12:53:36.444Z,27.52
2022-09-06T12:56:14.981Z,27.71
2022-09-06T12:58:43.906Z,27.73
2022-09-06T13:01:27.788Z,28.01
2022-09-06T13:04:16.616Z,27.37
2022-09-06T13:06:47.983Z,27.68
2022-09-06T13:09:22.113Z,28.81
2022-09-06T13:11:53.304Z,28.90
2022-09-06T13:14:29.167Z,29.39
2022-09-06T13:16:58.209Z,28.75
2022-09-06T13:19:37.473Z,28.76
2022-09-06T13:22:11.351Z,29.07
2022-09-06T13:24:49.873Z,28.94
2022-09-06T13:27:37.471Z,27.94
2022-09-06T13:30:10.354Z,28.07
2022-09-06T13:32:48.702Z,28.18
2022-09-06T13:35:31.493Z,29.46
2022-09-06T13:38:45.471Z,29.09
2022-09-06T13:41:26.450Z,27.97
2022-09-06T13:44:21.626Z,28.26
2022-09-06T13:46:55.408Z,28.71
2022-09-06T13:49:25.035Z,28.99
2022-09-06T13:51:56.819Z,29.63
2022-09-06T13:54:25.413Z,29.14
2022-09-06T13:56:54.608Z,28.96
2022-09-06T13:59:24.996Z,28.23
2022-09-06T14:02:10.183Z,28.77
2022-09-06T14:04:39.077Z,29.41
2022-09-06T14:07:08.202Z,29.15
2022-09-06T14:09:37.909Z,29.45
2022-09-06T14:12:07.368Z,28.99
2022-09-06T14:14:36.409Z,29.00
2022-09-06T14:17:05.563Z,29.25
2022-09-06T14:19:34.393Z,29.10
2022-09-06T14:22:05.211Z,28.90
2022-09-06T14:24:34.441Z,28.63
2022-09-06T14:27:04.982Z,28.67
2022-09-06T14:29:36.023Z,29.53
2022-09-06T14:32:05.015Z,29.76
2022-09-06T14:34:33.956Z,29.78
2022-09-06T14:37:02.891Z,28.89
2022-09-06T14:39:31.935Z,28.77
2022-09-06T14:42:01.076Z,29.18
2022-09-06T14:44:30.375Z,28.97
2022-09-06T14:47:00.445Z,28.79
2022-09-06T14:49:29.492Z,28.68
2022-09-06T14:51:59.201Z,28.46
2022-09-06T14:54:29.411Z,28.38
2022-09-06T14:56:58.529Z,28.06
2022-09-06T14:59:27.625Z,28.25
2022-09-06T15:01:56.676Z,28.52
2022-09-06T15:04:26.730Z,28.60
2022-09-06T15:06:55.511Z,28.64
2022-09-06T15:09:24.720Z,28.55
2022-09-06T15:11:54.387Z,28.53
2022-09-06T15:14:31.830Z,28.75
2022-09-06T15:17:01.224Z,28.67
2022-09-06T15:19:31.294Z,28.27
2022-09-06T15:22:00.635Z,28.42
2022-09-06T15:24:29.633Z,28.04
2022-09-06T15:26:58.946Z,27.59
2022-09-06T15:29:27.860Z,27.07
2022-09-06T15:31:57.668Z,26.69
2022-09-06T15:34:27.107Z,25.97
2022-09-06T15:36:57.283Z,24.93
2022-09-06T15:39:26.031Z,24.59
2022-09-06T15:41:54.709Z,24.60
2022-09-06T15:44:23.434Z,24.02
2022-09-06T15:46:54.284Z,23.67
2022-09-06T15:49:31.094Z,23.20
2022-09-06T15:52:03.035Z,23.33
2022-09-06T15:54:50.411Z,23.36
2022-09-06T15:57:19.279Z,22.87
2022-09-06T15:59:48.024Z,22.64
2022-09-06T16:02:17.203Z,22.29
2022-09-06T16:04:47.183Z,22.10
2022-09-06T16:07:15.999Z,21.86
2022-09-06T16:09:45.648Z,21.68
2022-09-06T16:12:14.641Z,21.45
2022-09-06T16:14:43.323Z,21.26
2022-09-06T16:17:12.710Z,21.05
2022-09-06T16:19:41.668Z,20.87
2022-09-06T16:22:10.639Z,20.68
2022-09-06T16:24:40.084Z,20.50
2022-09-06T16:27:08.740Z,20.35
2022-09-06T16:29:38.122Z,20.15
2022-09-06T16:32:06.906Z,20.02
2022-09-06T16:34:38.113Z,19.91
2022-09-06T16:37:08.255Z,19.82
2022-09-06T16:39:37.149Z,19.62
2022-09-06T16:42:06.734Z,19.39
2022-09-06T16:44:35.654Z,19.25
2022-09-06T16:47:04.963Z,19.04
2022-09-06T16:49:33.682Z,18.90
2022-09-06T16:52:02.613Z,18.83
2022-09-06T16:54:31.681Z,18.76
2022-09-06T16:57:02.231Z,18.69
2022-09-06T16:59:30.872Z,18.61
2022-09-06T17:01:59.626Z,18.52
2022-09-06T17:04:28.619Z,18.44
2022-09-06T17:06:57.359Z,18.37
2022-09-06T17:09:26.108Z,18.29
2022-09-06T17:11:55.421Z,18.21
2022-09-06T17:14:24.109Z,18.07
2022-09-06T17:17:05.243Z,17.93
2022-09-06T17:19:41.573Z,17.76
2022-09-06T17:22:12.964Z,17.67
2022-09-06T17:24:43.021Z,17.54
2022-09-06T17:27:11.892Z,17.39
2022-09-06T17:29:40.619Z,17.19
2022-09-06T17:32:10.621Z,17.01
2022-09-06T17:34:40.858Z,16.88
2022-09-06T17:37:09.677Z,16.74
2022-09-06T17:39:38.682Z,16.62
2022-09-06T17:42:08.036Z,16.49
2022-09-06T17:44:36.716Z,16.33
2022-09-06T17:47:14.419Z,16.17
2022-09-06T17:49:43.729Z,16.00
2022-09-06T17:52:12.539Z,15.82
2022-09-06T17:54:41.383Z,15.64
2022-09-06T17:57:10.213Z,15.52
2022-09-06T17:59:39.792Z,15.47
2022-09-06T18:02:09.191Z,15.46
2022-09-06T18:04:38.228Z,15.45
2022-09-06T18:07:07.132Z,15.44
2022-09-06T18:09:37.373Z,15.42
2022-09-06T18:12:07.212Z,15.39
2022-09-06T18:14:36.438Z,15.31
2022-09-06T18:17:05.324Z,15.25
2022-09-06T18:19:34.050Z,15.16
2022-09-06T18:22:04.973Z,15.09
2022-09-06T18:24:33.805Z,15.04
2022-09-06T18:27:03.179Z,14.98
2022-09-06T18:29:33.121Z,14.92
2022-09-06T18:32:01.950Z,14.86
2022-09-06T18:34:32.985Z,14.76
2022-09-06T18:37:01.695Z,14.68
2022-09-06T18:39:30.461Z,14.60
2022-09-06T18:42:01.676Z,14.45
2022-09-06T18:44:33.890Z,14.41
2022-09-06T18:47:05.817Z,14.36
2022-09-06T18:49:35.387Z,14.30
2022-09-06T18:52:06.623Z,14.26
2022-09-06T18:54:35.689Z,14.22
2022-09-06T18:57:04.579Z,14.19
2022-09-06T18:59:33.357Z,14.12
2022-09-06T19:02:02.115Z,14.06
2022-09-06T19:04:31.441Z,14.03
2022-09-06T19:07:03.053Z,13.96
2022-09-06T19:09:32.029Z,13.89
2022-09-06T19:12:00.811Z,13.84
2022-09-06T19:14:29.811Z,13.80
2022-09-06T19:16:58.437Z,13.76
2022-09-06T19:19:27.099Z,13.72
2022-09-06T19:21:55.757Z,13.71
2022-09-06T19:24:25.992Z,13.68
2022-09-06T19:26:55.517Z,13.63
2022-09-06T19:29:24.375Z,13.56
2022-09-06T19:31:53.275Z,13.50
2022-09-06T19:34:22.534Z,13.44
2022-09-06T19:36:55.552Z,13.37
2022-09-06T19:39:32.187Z,13.29
2022-09-06T19:42:02.784Z,13.20
2022-09-06T19:44:32.916Z,13.14
2022-09-06T19:47:02.294Z,13.10
2022-09-06T19:49:31.186Z,13.08
2022-09-06T19:51:59.874Z,13.03
2022-09-06T19:54:28.662Z,12.98
2022-09-06T19:56:57.399Z,12.95
2022-09-06T19:59:26.210Z,12.90
2022-09-06T20:01:54.929Z,12.89
2022-09-06T20:04:23.823Z,12.89
2022-09-06T20:06:52.485Z,12.90
2022-09-06T20:09:21.614Z,12.87
2022-09-06T20:11:50.274Z,12.81
2022-09-06T20:14:19.239Z,12.79
2022-09-06T20:16:47.909Z,12.77
2022-09-06T20:19:17.148Z,12.74
2022-09-06T20:21:45.820Z,12.70
2022-09-06T20:24:15.444Z,12.62
2022-09-06T20:26:44.188Z,12.54
2022-09-06T20:29:13.434Z,12.51
2022-09-06T20:31:42.226Z,12.50
2022-09-06T20:34:14.726Z,12.50
2022-09-06T20:36:43.454Z,12.53
2022-09-06T20:39:12.174Z,12.58
2022-09-06T20:41:40.842Z,12.66
2022-09-06T20:44:09.528Z,12.77
2022-09-06T20:46:38.591Z,12.85
2022-09-06T20:49:08.350Z,13.03
2022-09-06T20:51:38.793Z,13.17
2022-09-06T20:54:07.730Z,13.32
2022-09-06T20:56:41.878Z,13.41
2022-09-06T20:59:13.794Z,13.59
2022-09-06T21:01:47.189Z,13.68
2022-09-06T21:04:17.907Z,13.85
2022-09-06T21:06:46.981Z,13.94
2022-09-06T21:09:16.072Z,14.22
2022-09-06T21:11:45.574Z,14.27
2022-09-06T21:14:15.291Z,14.25
2022-09-06T21:16:44.740Z,14.25
2022-09-06T21:19:13.450Z,14.22
2022-09-06T21:21:43.219Z,14.19
2022-09-06T21:24:12.139Z,14.19
2022-09-06T21:26:45.008Z,14.19
2022-09-06T21:29:14.095Z,14.17
2022-09-06T21:31:42.833Z,14.14
2022-09-06T21:34:16.791Z,14.11
2022-09-06T21:36:46.326Z,14.08
2022-09-06T21:39:15.536Z,14.09
2022-09-06T21:41:44.978Z,14.13
2022-09-06T21:44:13.768Z,14.15
2022-09-06T21:46:42.997Z,14.13
2022-09-06T21:49:14.224Z,14.12
2022-09-06T21:51:42.981Z,14.15
2022-09-06T21:54:11.819Z,14.16
2022-09-06T21:56:41.541Z,14.20
2022-09-06T21:59:11.157Z,14.19
2022-09-06T22:01:43.946Z,14.19
2022-09-06T22:04:14.333Z,14.22
2022-09-06T22:06:42.977Z,14.26
2022-09-06T22:09:13.086Z,14.28
2022-09-06T22:11:44.646Z,14.31
2022-09-06T22:14:15.527Z,14.39
2022-09-06T22:16:44.429Z,14.40
2022-09-06T22:19:14.386Z,14.39
2022-09-06T22:21:43.285Z,14.36
2022-09-06T22:24:13.078Z,14.33
2022-09-06T22:26:42.724Z,14.31
2022-09-06T22:29:13.806Z,14.34
2022-09-06T22:31:43.224Z,14.45
2022-09-06T22:34:12.122Z,14.58
2022-09-06T22:36:40.786Z,14.61
2022-09-06T22:39:09.956Z,14.63
2022-09-06T22:41:38.871Z,14.71
2022-09-06T22:44:07.644Z,14.73
2022-09-06T22:46:37.489Z,14.74
2022-09-06T22:49:07.249Z,14.78
2022-09-06T22:51:36.002Z,14.79
2022-09-06T22:54:05.321Z,14.81
2022-09-06T22:56:34.131Z,14.83
2022-09-06T22:59:03.276Z,14.88
2022-09-06T23:01:38.926Z,14.92
2022-09-06T23:04:09.715Z,14.90
2022-09-06T23:06:38.533Z,14.86
2022-09-06T23:09:07.581Z,14.82
2022-09-06T23:11:36.439Z,14.77
2022-09-06T23:14:05.344Z,14.73
2022-09-06T23:16:34.121Z,14.75
2022-09-06T23:19:03.054Z,14.72
2022-09-06T23:21:32.706Z,14.66
2022-09-06T23:24:01.517Z,14.60
2022-09-06T23:26:32.864Z,14.51
2022-09-06T23:29:01.831Z,14.49
2022-09-06T23:31:33.021Z,14.45
2022-09-06T23:34:03.519Z,14.35
2022-09-06T23:36:32.523Z,14.25
2022-09-06T23:39:02.541Z,14.18
2022-09-06T23:41:31.465Z,14.15
2022-09-06T23:44:01.011Z,14.12
2022-09-06T23:46:30.217Z,14.07
2022-09-06T23:48:58.967Z,14.01
2022-09-06T23:51:27.653Z,13.95
2022-09-06T23:53:56.358Z,13.94
2022-09-06T23:56:24.991Z,13.87
2022-09-06T23:58:53.846Z,13.78
